METAR Data
IDs: Format: Raw Decoded Include TAF

Data at: 1455 UTC 18 Aug 2019

PAGM 181356Z AUTO 05008KT 10SM CLR 09/08 A3055 RMK AO2 SLP353 T00940083
PAGM 181256Z AUTO 02006KT 10SM CLR 10/08 A3057 RMK AO2 SLP359 T01000083
PAGM 181156Z AUTO 03010KT 10SM CLR 09/09 A3058 RMK AO2 SLP363 T00940089 10111 20089 56010
PAGM 181111Z AUTO 36005KT 10SM SCT003 09/08 A3059 RMK AO2
PAGM 181056Z AUTO 04008KT 7SM BKN003 09/09 A3059 RMK AO2 SLP365 T00940089
PAGM 180956Z AUTO 04007KT 9SM OVC003 09/09 A3061 RMK AO2 SLP371 T00940089
PAGM 180926Z AUTO 04007KT 7SM BKN003 BKN090 09/09 A3061 RMK AO2
PAGM 180917Z AUTO 03008KT 7SM SCT003 BKN090 09/09 A3061 RMK AO2
PAGM 180856Z AUTO 04008KT 8SM BKN090 09/09 A3061 RMK AO2 SLP374 T00940089 401110078 58002
PAGM 180756Z AUTO 02007KT 9SM OVC090 09/09 A3062 RMK AO2 SLP375 T00940089
PAGM 180656Z AUTO 03012KT 10SM CLR 11/09 A3062 RMK AO2 SLP375 T01060089
PAGM 180556Z AUTO 03013KT 9SM CLR 10/09 A3062 RMK AO2 SLP376 T01000089 10111 20100 58003
PAGM 180456Z AUTO 04011KT 8SM CLR 10/09 A3064 RMK AO2 SLP381 T01000089
PAGM 180356Z AUTO 03015KT 9SM CLR 10/09 A3063 RMK AO2 SLP380 T01000089
PAGM 180256Z AUTO 06011KT 10SM CLR 11/09 A3063 RMK AO2 SLP379 T01110089 56004
PAGM 180156Z AUTO 07013KT 9SM CLR 11/09 A3063 RMK AO2 SLP379 T01060089
PAGM 180056Z AUTO 07014KT 10SM CLR 11/09 A3064 RMK AO2 SLP382 T01060089
PAGM 172356Z AUTO 06015KT 7SM FEW004 OVC090 10/09 A3064 RMK AO2 SLP383 T01000089 10100 20089 58005
PAGM 172310Z AUTO 07015KT 8SM FEW005 OVC090 10/09 A3065 RMK AO2
PAGM 172256Z AUTO 06014KT 7SM BKN005 OVC095 10/09 A3065 RMK AO2 SLP387 T01000089
PAGM 172156Z AUTO 06015KT 8SM BKN005 OVC090 10/09 A3066 RMK AO2 SLP388 T01000089
PAGM 172056Z AUTO 05015KT 5SM BR OVC005 09/08 A3066 RMK AO2 SLP388 T00890083 50004
PAGM 171956Z AUTO 05014KT 6SM BR BKN005 OVC095 09/09 A3066 RMK AO2 SLP388 T00940089
PAGM 171923Z AUTO 05015KT 5SM BR BKN005 OVC095 09/08 A3065 RMK AO2 CIG 003V007
PAGM 171904Z AUTO 05015KT 5SM BR SCT007 OVC095 09/08 A3065 RMK AO2
PAGM 171856Z AUTO 05013KT 5SM BR SCT005 BKN011 OVC095 09/08 A3065 RMK AO2 CIG 008V011 SLP386 T00890083
PAGM 171832Z AUTO 05013KT 4SM BR SCT003 OVC011 09/08 A3065 RMK AO2
PAGM 171756Z AUTO 04014KT 5SM BR OVC003 09/08 A3065 RMK AO2 SLP384 T00890083 10089 20083 55002
PAGM 171725Z AUTO 05013KT 5SM BR BKN003 OVC095 09/08 A3065 RMK AO2
PAGM 171656Z AUTO 05013KT 5SM BR BKN005 OVC100 09/08 A3064 RMK AO2 SLP382 T00890083
PAGM 171651Z AUTO 05012KT 5SM BR BKN005 OVC100 09/08 A3064 RMK AO2
PAGM 171631Z AUTO 05013KT 5SM BR SCT005 OVC100 09/08 A3064 RMK AO2
PAGM 171556Z AUTO 04008KT 5SM BR BKN005 OVC100 09/08 A3065 RMK AO2 SLP386 T00890078
PAGM 171543Z AUTO 05011KT 6SM BR SCT005 OVC100 09/08 A3064 RMK AO2
PAGM 171456Z AUTO 06012KT 10SM OVC005 09/08 A3064 RMK AO2 SLP381 T00890083 50000
PAGM 171439Z AUTO 05009KT 9SM OVC005 09/08 A3064 RMK AO2
PAGM 171356Z AUTO 04007KT 8SM OVC007 08/08 A3065 RMK AO2 SLP385 T00830078
PAGM 171256Z AUTO 05011KT 10SM OVC009 09/08 A3065 RMK AO2 CIG 006V011 SLP385 T00890078
PAGM 171203Z AUTO 05012KT 10SM OVC007 08/08 A3064 RMK AO2 CIG 003V009
PAGM 171156Z AUTO 05014KT 10SM OVC005 08/08 A3063 RMK AO2 CIG 003V008 SLP380 60000 70003 T00830078 10094 20078 50005
PAGM 171126Z AUTO 05012KT 10SM OVC005 08/07 A3064 RMK AO2
PAGM 170956Z AUTO 05016KT 10SM -RA OVC007 08/07 A3063 RMK AO2 RAB52 CIG 005V010 SLP379 P0000 T00830072
PAGM 170856Z AUTO 05015KT 10SM OVC007 08/07 A3062 RMK AO2 RAB20E36 SLP375 P0000 60000 T00830072 401060083 53010
PAGM 170756Z AUTO 05018KT 10SM OVC007 08/07 A3060 RMK AO2 SLP369 T00830072
PAGM 170656Z AUTO 04015KT 10SM OVC009 09/08 A3061 RMK AO2 SLP371 T00890078
PAGM 170609Z AUTO 04012KT 10SM BKN009 OVC100 09/08 A3059 RMK AO2
PAGM 170556Z AUTO 04014KT 10SM FEW011 OVC100 09/08 A3059 RMK AO2 SLP365 T00940078 10106 20094 53006
PAGM 170456Z AUTO 04010KT 10SM OVC100 10/08 A3058 RMK AO2 SLP363 T01000078
PAGM 170356Z AUTO 06010KT 10SM BKN100 10/07 A3058 RMK AO2 SLP360 T01000067
PAGM 170256Z AUTO 06013KT 10SM OVC100 09/07 A3057 RMK AO2 SLP359 T00940072 51014